createdAt,value
2023-10-31T00:00:49.768Z,14.40
2023-10-31T00:03:18.329Z,14.40
2023-10-31T00:05:46.792Z,14.40
2023-10-31T00:08:15.191Z,14.30
2023-10-31T00:10:45.969Z,14.20
2023-10-31T00:13:14.420Z,14.10
2023-10-31T00:15:43.012Z,14.00
2023-10-31T00:18:13.484Z,14.00
2023-10-31T00:20:41.767Z,13.90
2023-10-31T00:23:10.149Z,13.90
2023-10-31T00:25:38.780Z,13.80
2023-10-31T00:28:07.058Z,13.70
2023-10-31T00:30:35.460Z,13.60
2023-10-31T00:33:03.902Z,13.60
2023-10-31T00:35:33.636Z,13.60
2023-10-31T00:38:01.968Z,13.60
2023-10-31T00:40:30.446Z,13.60
2023-10-31T00:43:00.066Z,13.50
2023-10-31T00:45:28.609Z,13.50
2023-10-31T00:47:57.191Z,13.50
2023-10-31T00:50:25.587Z,13.40
2023-10-31T00:52:55.634Z,13.40
2023-10-31T00:55:24.036Z,13.40
2023-10-31T00:57:52.415Z,13.30
2023-10-31T01:00:21.306Z,13.30
2023-10-31T01:02:49.794Z,13.20
2023-10-31T01:05:18.303Z,13.30
2023-10-31T01:07:46.655Z,13.30
2023-10-31T01:10:16.683Z,13.30
2023-10-31T01:12:45.002Z,13.30
2023-10-31T01:15:13.372Z,13.20
2023-10-31T01:17:42.134Z,13.30
2023-10-31T01:20:11.391Z,13.30
2023-10-31T01:22:39.864Z,13.20
2023-10-31T01:25:08.507Z,13.20
2023-10-31T01:27:38.305Z,13.10
2023-10-31T01:30:07.084Z,13.00
2023-10-31T01:32:35.709Z,13.10
2023-10-31T01:35:05.332Z,13.00
2023-10-31T01:37:33.720Z,13.00
2023-10-31T01:40:02.192Z,12.90
2023-10-31T01:42:30.535Z,13.00
2023-10-31T01:45:00.246Z,13.00
2023-10-31T01:47:28.839Z,13.00
2023-10-31T01:49:57.780Z,12.90
2023-10-31T01:52:26.141Z,12.90
2023-10-31T01:54:54.611Z,12.90
2023-10-31T01:57:22.795Z,12.80
2023-10-31T01:59:51.158Z,12.80
2023-10-31T02:02:21.750Z,12.80
2023-10-31T02:04:50.533Z,12.70
2023-10-31T02:07:19.133Z,12.70
2023-10-31T02:09:47.810Z,12.70
2023-10-31T02:12:31.245Z,12.70
2023-10-31T02:14:59.785Z,12.70
2023-10-31T02:17:29.584Z,12.60
2023-10-31T02:19:58.067Z,12.70
2023-10-31T02:22:28.280Z,12.60
2023-10-31T02:24:57.443Z,12.60
2023-10-31T02:27:25.665Z,12.60
2023-10-31T02:29:53.932Z,12.70
2023-10-31T02:32:22.461Z,12.70
2023-10-31T02:34:51.744Z,12.70
2023-10-31T02:37:20.195Z,12.60
2023-10-31T02:39:50.121Z,12.60
2023-10-31T02:42:18.727Z,12.60
2023-10-31T02:44:47.279Z,12.60
2023-10-31T02:47:15.678Z,12.60
2023-10-31T02:49:44.041Z,12.60
2023-10-31T02:52:12.771Z,12.60
2023-10-31T02:54:41.256Z,12.60
2023-10-31T02:57:11.510Z,12.60
2023-10-31T02:59:39.914Z,12.60
2023-10-31T03:02:08.423Z,12.60
2023-10-31T03:04:36.803Z,12.60
2023-10-31T03:07:05.741Z,12.70
2023-10-31T03:09:34.102Z,12.80
2023-10-31T03:12:02.502Z,12.90
2023-10-31T03:14:32.041Z,12.90
2023-10-31T03:17:00.399Z,12.90
2023-10-31T03:19:29.754Z,12.90
2023-10-31T03:21:58.002Z,13.00
2023-10-31T03:24:26.452Z,13.00
2023-10-31T03:26:56.191Z,13.00
2023-10-31T03:29:24.652Z,13.10
2023-10-31T03:31:54.553Z,13.10
2023-10-31T03:34:23.045Z,13.10
2023-10-31T03:36:51.341Z,13.10
2023-10-31T03:39:19.974Z,13.10
2023-10-31T03:41:48.884Z,13.20
2023-10-31T03:44:17.404Z,13.20
2023-10-31T03:46:46.025Z,13.20
2023-10-31T03:49:15.740Z,13.20
2023-10-31T03:51:44.169Z,13.20
2023-10-31T03:54:12.980Z,13.20
2023-10-31T03:56:42.336Z,13.20
2023-10-31T03:59:11.059Z,13.20
2023-10-31T04:01:39.412Z,13.10
2023-10-31T04:04:08.158Z,13.10
2023-10-31T04:06:40.893Z,13.10
2023-10-31T04:09:09.183Z,13.00
2023-10-31T04:11:37.640Z,13.00
2023-10-31T04:22:35.869Z,12.70
2023-10-31T04:25:19.579Z,12.60
2023-10-31T04:27:58.001Z,12.60
2023-10-31T04:30:44.245Z,12.60
2023-10-31T04:36:21.174Z,12.50
2023-10-31T04:39:11.579Z,12.40
2023-10-31T04:42:13.277Z,12.40
2023-10-31T04:44:56.202Z,12.40
2023-10-31T04:47:41.990Z,12.40
2023-10-31T04:50:18.726Z,12.30
2023-10-31T04:52:51.753Z,12.30
2023-10-31T04:55:23.063Z,12.20
2023-10-31T04:58:04.051Z,12.20
2023-10-31T05:00:49.516Z,12.20
2023-10-31T05:03:23.199Z,12.20
2023-10-31T05:05:57.839Z,12.10
2023-10-31T05:11:17.232Z,12.10
2023-10-31T05:13:51.111Z,12.10
2023-10-31T05:16:27.107Z,12.10
2023-10-31T05:19:22.461Z,12.10
2023-10-31T05:21:58.968Z,12.00
2023-10-31T05:24:47.412Z,12.10
2023-10-31T05:27:35.171Z,12.00
2023-10-31T05:30:06.241Z,12.00
2023-10-31T05:32:39.587Z,12.00
2023-10-31T05:35:19.803Z,12.00
2023-10-31T05:37:55.784Z,12.00
2023-10-31T05:40:29.038Z,11.90
2023-10-31T05:43:06.386Z,11.90
2023-10-31T05:45:38.367Z,12.00
2023-10-31T05:48:17.482Z,11.90
2023-10-31T05:50:47.780Z,11.90
2023-10-31T05:53:30.596Z,11.90
2023-10-31T05:56:02.558Z,11.90
2023-10-31T05:58:30.958Z,12.00
2023-10-31T06:00:59.419Z,12.00
2023-10-31T06:03:29.852Z,12.00
2023-10-31T06:06:02.330Z,12.00
2023-10-31T06:08:37.595Z,12.00
2023-10-31T06:11:19.897Z,12.00
2023-10-31T06:16:37.661Z,12.00
2023-10-31T06:19:14.071Z,12.00
2023-10-31T06:21:51.073Z,11.90
2023-10-31T06:24:19.988Z,12.00
2023-10-31T06:26:52.055Z,11.90
2023-10-31T06:29:43.529Z,11.90
2023-10-31T06:32:17.153Z,11.90
2023-10-31T06:34:52.540Z,11.90
2023-10-31T06:37:22.194Z,11.90
2023-10-31T06:40:12.618Z,11.90
2023-10-31T06:42:51.869Z,11.90
2023-10-31T06:48:23.442Z,11.90
2023-10-31T06:51:19.891Z,11.90
2023-10-31T06:56:40.695Z,11.90
2023-10-31T06:59:12.307Z,11.90
2023-10-31T07:01:44.486Z,11.90
2023-10-31T07:04:15.791Z,11.90
2023-10-31T07:06:58.551Z,11.80
2023-10-31T07:09:36.666Z,11.80
2023-10-31T07:12:09.945Z,11.80
2023-10-31T07:14:38.458Z,11.70
2023-10-31T07:17:06.975Z,11.70
2023-10-31T07:19:35.297Z,11.70
2023-10-31T07:22:06.785Z,11.70
2023-10-31T07:24:37.502Z,11.70
2023-10-31T07:27:08.156Z,11.70
2023-10-31T07:29:44.167Z,11.70
2023-10-31T07:32:13.601Z,11.80
2023-10-31T07:34:42.769Z,11.80
2023-10-31T07:37:13.170Z,11.80
2023-10-31T07:39:42.213Z,11.80
2023-10-31T07:42:14.004Z,11.80
2023-10-31T07:44:44.635Z,11.70
2023-10-31T07:47:12.920Z,11.70
2023-10-31T07:49:42.093Z,11.60
2023-10-31T07:52:10.425Z,11.60
2023-10-31T07:54:44.176Z,11.60
2023-10-31T07:57:13.070Z,11.60
2023-10-31T07:59:45.351Z,11.70
2023-10-31T08:02:14.541Z,11.70
2023-10-31T08:04:43.246Z,11.70
2023-10-31T08:07:16.123Z,11.70
2023-10-31T08:09:45.943Z,11.80
2023-10-31T08:12:14.299Z,11.80
2023-10-31T08:14:42.811Z,11.90
2023-10-31T08:17:12.334Z,11.90
2023-10-31T08:19:44.465Z,12.00
2023-10-31T08:22:13.162Z,12.00
2023-10-31T08:24:42.682Z,12.10
2023-10-31T08:27:13.667Z,12.20
2023-10-31T08:29:42.231Z,12.30
2023-10-31T08:32:14.325Z,12.40
2023-10-31T08:34:44.237Z,12.40
2023-10-31T08:37:12.777Z,12.40
2023-10-31T08:39:41.742Z,12.40
2023-10-31T08:42:10.977Z,12.40
2023-10-31T08:44:45.977Z,12.50
2023-10-31T08:47:15.513Z,12.50
2023-10-31T08:49:44.450Z,12.50
2023-10-31T08:52:12.738Z,12.50
2023-10-31T08:54:55.500Z,12.60
2023-10-31T08:57:31.495Z,12.50
2023-10-31T09:00:06.730Z,12.50
2023-10-31T09:02:45.604Z,12.60
2023-10-31T09:05:14.056Z,12.60
2023-10-31T09:07:51.762Z,12.50
2023-10-31T09:10:26.735Z,12.50
2023-10-31T09:12:57.869Z,12.60
2023-10-31T09:15:35.675Z,12.60
2023-10-31T09:21:28.214Z,12.80
2023-10-31T09:24:50.754Z,12.80
2023-10-31T09:27:25.831Z,12.90
2023-10-31T09:30:07.751Z,12.90
2023-10-31T09:32:42.221Z,12.80
2023-10-31T09:35:11.583Z,12.70
2023-10-31T09:38:03.494Z,12.70
2023-10-31T09:43:47.755Z,12.70
2023-10-31T09:46:59.650Z,12.60
2023-10-31T09:50:08.170Z,12.60
2023-10-31T10:30:43.464Z,12.60
2023-10-31T10:33:40.421Z,12.70
2023-10-31T10:36:30.602Z,12.80
2023-10-31T10:42:01.920Z,12.80
2023-10-31T10:44:47.736Z,13.20
2023-10-31T10:47:32.468Z,13.50
2023-10-31T10:50:03.747Z,13.80
2023-10-31T10:52:38.529Z,13.80
2023-10-31T10:55:14.277Z,13.90
2023-10-31T10:57:49.916Z,14.00
2023-10-31T11:00:18.667Z,14.00
2023-10-31T11:03:16.993Z,14.50
2023-10-31T11:05:47.826Z,14.60
2023-10-31T11:08:19.230Z,14.80
2023-10-31T11:10:49.559Z,15.10
2023-10-31T11:13:17.889Z,15.10
2023-10-31T11:15:46.817Z,14.70
2023-10-31T11:18:19.015Z,14.10
2023-10-31T11:20:49.593Z,14.40
2023-10-31T11:23:20.328Z,14.10
2023-10-31T11:25:51.890Z,14.40
2023-10-31T11:28:20.657Z,14.40
2023-10-31T11:30:51.022Z,14.10
2023-10-31T11:33:25.162Z,14.20
2023-10-31T11:36:02.666Z,14.00
2023-10-31T11:38:35.757Z,13.70
2023-10-31T11:41:05.281Z,13.80
2023-10-31T11:43:54.100Z,13.80
2023-10-31T11:46:24.016Z,13.70
2023-10-31T11:48:55.275Z,13.50
2023-10-31T11:51:25.478Z,13.50
2023-10-31T11:53:55.763Z,13.40
2023-10-31T11:56:24.444Z,13.30
2023-10-31T11:59:13.019Z,13.20
2023-10-31T12:01:48.680Z,13.10
2023-10-31T12:04:26.328Z,13.00
2023-10-31T12:07:01.603Z,13.00
2023-10-31T12:10:09.175Z,12.90
2023-10-31T12:16:13.636Z,12.90
2023-10-31T12:18:55.277Z,13.00
2023-10-31T12:21:36.129Z,13.30
2023-10-31T12:24:05.262Z,13.60
2023-10-31T12:26:34.834Z,13.50
2023-10-31T12:29:33.598Z,13.60
2023-10-31T12:32:02.103Z,13.60
2023-10-31T12:34:31.354Z,13.50
2023-10-31T12:37:02.641Z,13.50
2023-10-31T12:39:31.106Z,13.30
2023-10-31T12:42:00.254Z,13.10
2023-10-31T12:44:30.564Z,13.00
2023-10-31T12:47:00.105Z,12.90
2023-10-31T12:52:49.683Z,12.90
2023-10-31T12:59:10.412Z,12.80
2023-10-31T13:02:17.005Z,12.70
2023-10-31T13:18:49.195Z,12.50
2023-10-31T13:21:32.776Z,12.50
2023-10-31T13:27:44.887Z,12.60
2023-10-31T13:30:20.119Z,12.50
2023-10-31T13:33:04.015Z,12.50
2023-10-31T13:36:09.939Z,12.50
2023-10-31T13:38:39.900Z,12.50
2023-10-31T13:41:08.774Z,12.50
2023-10-31T13:43:45.803Z,12.50
2023-10-31T13:46:35.325Z,12.50
2023-10-31T13:52:02.096Z,12.40
2023-10-31T13:54:35.730Z,12.40
2023-10-31T13:57:25.033Z,12.40
2023-10-31T13:59:53.738Z,12.40
2023-10-31T14:02:28.429Z,12.30
2023-10-31T14:05:20.710Z,12.30
2023-10-31T14:07:50.574Z,12.20
2023-10-31T14:13:33.114Z,12.00
2023-10-31T14:18:54.152Z,11.80
2023-10-31T14:21:30.074Z,11.80
2023-10-31T14:24:14.762Z,11.70
2023-10-31T14:30:39.314Z,11.30
2023-10-31T14:33:24.953Z,11.20
2023-10-31T14:36:23.866Z,11.20
2023-10-31T14:39:00.950Z,11.20
2023-10-31T14:41:37.472Z,11.30
2023-10-31T14:54:05.991Z,11.40
2023-10-31T14:56:50.120Z,11.40
2023-10-31T15:03:04.225Z,11.40
2023-10-31T15:05:34.177Z,11.50
2023-10-31T15:08:04.700Z,11.50
2023-10-31T15:10:34.556Z,11.50
2023-10-31T15:13:06.017Z,11.50
2023-10-31T15:15:43.203Z,11.50
2023-10-31T15:18:16.380Z,11.50
2023-10-31T15:21:10.300Z,11.50
2023-10-31T15:23:48.116Z,11.40
2023-10-31T15:26:35.272Z,11.40
2023-10-31T15:32:28.094Z,11.40
2023-10-31T15:34:57.139Z,11.30
2023-10-31T15:41:24.608Z,11.30
2023-10-31T15:46:48.025Z,11.30
2023-10-31T15:49:53.991Z,11.30
2023-10-31T15:56:15.402Z,11.30
2023-10-31T15:58:50.932Z,11.20
2023-10-31T16:01:48.680Z,11.30
2023-10-31T16:04:18.929Z,11.30
2023-10-31T16:16:35.098Z,11.20
2023-10-31T16:22:14.455Z,11.20
2023-10-31T16:27:56.527Z,11.10
2023-10-31T16:30:26.883Z,11.10
2023-10-31T16:50:04.615Z,11.10
2023-10-31T16:53:11.656Z,11.10
2023-10-31T16:55:48.158Z,11.10
2023-10-31T16:58:20.577Z,11.20
2023-10-31T17:01:18.586Z,11.20
2023-10-31T17:20:00.521Z,11.20
2023-10-31T17:22:57.684Z,11.20
2023-10-31T17:35:25.883Z,11.20
2023-10-31T17:37:59.259Z,11.10
2023-10-31T17:43:36.819Z,11.20
2023-10-31T17:46:31.705Z,11.20
2023-10-31T17:49:17.285Z,11.10
2023-10-31T17:51:54.450Z,11.20
2023-10-31T17:54:45.558Z,11.20
2023-10-31T17:57:29.080Z,11.20
2023-10-31T18:06:33.897Z,11.20
2023-10-31T18:12:34.262Z,11.10
2023-10-31T18:15:09.158Z,11.20
2023-10-31T18:17:43.617Z,11.10
2023-10-31T18:20:16.549Z,11.10
2023-10-31T18:23:19.531Z,11.10
2023-10-31T18:25:55.254Z,11.10
2023-10-31T18:28:26.699Z,11.10
2023-10-31T18:31:07.667Z,11.10
2023-10-31T18:33:37.679Z,11.10
2023-10-31T18:36:07.232Z,11.10
2023-10-31T18:38:36.093Z,11.10
2023-10-31T18:41:23.187Z,11.00
2023-10-31T18:44:09.787Z,11.00
2023-10-31T18:47:23.724Z,11.00
2023-10-31T18:50:34.261Z,11.00
2023-10-31T18:53:34.630Z,11.00
2023-10-31T18:56:03.465Z,11.00
2023-10-31T18:58:33.913Z,11.00
2023-10-31T19:01:04.276Z,11.00
2023-10-31T19:06:56.598Z,11.00
2023-10-31T19:09:29.633Z,10.90
2023-10-31T19:12:15.982Z,10.90
2023-10-31T19:17:52.798Z,10.90
2023-10-31T19:20:21.800Z,10.90
2023-10-31T19:22:50.397Z,10.90
2023-10-31T19:28:12.415Z,10.90
2023-10-31T19:31:07.956Z,10.90
2023-10-31T19:36:25.391Z,10.90
2023-10-31T19:42:33.091Z,11.00
2023-10-31T19:45:01.646Z,11.00
2023-10-31T19:47:42.373Z,10.90
2023-10-31T19:53:35.022Z,10.90
2023-10-31T19:59:46.632Z,10.90
2023-10-31T20:02:25.182Z,10.90
2023-10-31T20:05:25.840Z,11.00
2023-10-31T20:08:29.229Z,11.00
2023-10-31T20:11:01.574Z,11.00
2023-10-31T20:16:53.288Z,11.00
2023-10-31T20:19:33.753Z,11.00
2023-10-31T20:22:52.811Z,11.00
2023-10-31T20:25:21.863Z,10.90
2023-10-31T20:28:24.800Z,11.00
2023-10-31T20:30:58.059Z,11.00
2023-10-31T20:33:32.163Z,11.00
2023-10-31T20:36:01.595Z,11.00
2023-10-31T20:38:30.123Z,11.00
2023-10-31T20:41:28.633Z,11.00
2023-10-31T20:44:08.973Z,11.00
2023-10-31T20:47:33.862Z,11.00
2023-10-31T20:50:28.712Z,11.00
2023-10-31T20:53:14.606Z,11.00
2023-10-31T20:58:26.211Z,10.90
2023-10-31T21:00:54.588Z,11.00
2023-10-31T21:03:31.880Z,11.00
2023-10-31T21:06:35.803Z,11.00
2023-10-31T21:09:12.290Z,11.00
2023-10-31T21:12:01.888Z,11.00
2023-10-31T21:18:10.727Z,11.00
2023-10-31T21:27:08.942Z,11.00
2023-10-31T21:32:42.486Z,11.00
2023-10-31T21:35:11.926Z,11.00
2023-10-31T21:37:43.458Z,11.00
2023-10-31T21:40:12.335Z,11.00
2023-10-31T21:42:43.072Z,11.10
2023-10-31T21:45:11.740Z,11.00
2023-10-31T21:47:42.905Z,11.00
2023-10-31T21:50:28.250Z,11.00
2023-10-31T21:53:10.766Z,11.00
2023-10-31T21:59:21.967Z,10.90
2023-10-31T22:02:05.651Z,10.90
2023-10-31T22:05:07.426Z,10.90
2023-10-31T22:07:42.843Z,10.90
2023-10-31T22:10:19.271Z,10.90
2023-10-31T22:12:59.600Z,10.90
2023-10-31T22:15:28.473Z,10.90
2023-10-31T22:17:57.593Z,10.80
2023-10-31T22:26:29.703Z,10.80
2023-10-31T22:29:04.884Z,10.90
2023-10-31T22:31:37.952Z,10.90
2023-10-31T22:34:46.497Z,10.90
2023-10-31T22:37:29.543Z,10.90
2023-10-31T22:40:00.637Z,10.90
2023-10-31T22:42:34.408Z,10.80
2023-10-31T22:45:03.997Z,10.90
2023-10-31T22:48:05.115Z,10.90
2023-10-31T22:50:51.793Z,10.80
2023-10-31T22:53:37.128Z,10.80
2023-10-31T23:02:10.138Z,10.80
2023-10-31T23:04:39.308Z,10.80
2023-10-31T23:17:09.980Z,10.60
2023-10-31T23:20:04.987Z,10.50
2023-10-31T23:25:44.370Z,10.50
2023-10-31T23:31:09.500Z,10.30
2023-10-31T23:37:04.385Z,10.20
2023-10-31T23:39:58.433Z,10.20
2023-10-31T23:46:05.397Z,10.00
2023-10-31T23:49:02.742Z,10.00
2023-10-31T23:55:09.484Z,9.90
